EDT,Max TemperatureF,Mean TemperatureF,Min TemperatureF,Max Dew PointF,MeanDew PointF,Min DewpointF,Max Humidity, Mean Humidity, Min Humidity, Max Sea Level PressureIn, Mean Sea Level PressureIn, Min Sea Level PressureIn, Max VisibilityMiles, Mean VisibilityMiles, Min VisibilityMiles, Max Wind SpeedMPH, Mean Wind SpeedMPH, Max Gust SpeedMPH,PrecipitationIn, CloudCover, Events, WindDirDegrees
2013-8-1,78,69,60,70,65,61,100,89,57,30.00,29.93,29.90,10,9,2,12,3,16,0.05,,,269
2013-8-2,73,66,59,66,60,54,100,81,50,30.02,29.98,29.94,10,10,4,17,3,22,0.00,,,264
2013-8-3,73,65,55,70,64,55,100,93,68,30.03,29.99,29.96,10,9,2,13,7,18,0.63,,,250
2013-8-4,71,61,51,61,56,52,100,82,53,30.12,30.07,30.02,10,10,10,13,3,21,0.00,,,323
2013-8-5,71,60,48,63,55,48,100,84,53,30.16,30.12,30.07,10,10,7,9,1,,0.00,,,291
2013-8-6,78,66,53,63,59,54,100,79,47,30.08,30.05,30.02,10,10,10,10,2,17,0.00,,,142
2013-8-7,80,73,66,73,68,64,100,92,74,30.05,30.03,29.98,10,10,2,12,7,28,0.25,,,174
2013-8-8,82,73,64,75,71,64,100,95,74,30.03,30.00,29.97,10,10,5,12,2,17,0.13,,,203
2013-8-9,77,72,66,75,72,66,100,98,89,30.05,29.96,29.93,10,7,2,10,4,16,0.17,,,268
2013-8-10,78,69,60,68,65,61,100,88,65,30.14,30.11,30.05,10,10,5,7,1,,0.00,,,302
2013-8-11,78,69,60,70,64,57,100,84,60,30.17,30.12,30.07,10,10,10,8,1,,0.00,,,21
2013-8-12,78,70,62,70,66,63,100,88,61,30.11,30.04,29.93,10,8,0,8,2,18,0.04,,,246
2013-8-13,75,65,53,70,64,52,100,89,68,30.00,29.88,29.83,10,10,3,15,4,20,0.16,,,299
2013-8-14,68,59,50,55,53,50,100,87,60,30.17,30.07,29.99,10,10,10,10,3,17,0.00,,,304
2013-8-15,71,58,46,57,51,46,100,80,46,30.23,30.18,30.14,10,10,5,6,0,,0.00,,,349
2013-8-16,77,64,50,61,55,50,100,77,44,30.22,30.18,30.15,10,10,7,6,1,,0.00,,,88
2013-8-17,75,64,53,63,56,52,100,77,44,30.31,30.27,30.22,10,10,10,12,2,16,0.00,,,132
2013-8-18,71,66,62,64,61,57,100,86,69,30.29,30.23,30.19,10,10,7,9,2,,0.00,,,139
2013-8-19,75,68,62,70,66,63,100,95,73,30.19,30.15,30.10,10,9,4,6,1,,0.15,,,235
2013-8-20,80,68,55,66,61,55,100,82,44,30.24,30.20,30.15,10,9,0,8,1,,0.00,,,297
2013-8-21,82,68,55,72,63,55,100,82,48,30.24,30.19,30.11,10,9,4,7,1,,0.00,,,208
2013-8-22,80,72,64,72,68,64,100,97,74,30.15,30.09,30.02,10,8,2,25,6,32,0.42,,,239
2013-8-23,78,70,62,72,65,59,100,89,51,30.19,30.10,30.03,10,7,0,7,0,,0.05,,,91
2013-8-24,78,66,55,63,58,54,100,78,42,30.35,30.30,30.20,10,10,10,7,2,,0.00,,,88
2013-8-25,78,66,53,66,60,54,100,81,47,30.41,30.35,30.28,10,10,10,10,2,18,0.00,,,239
2013-8-26,82,70,59,70,65,59,100,83,61,30.30,30.19,30.06,10,10,7,13,4,21,0.00,,,250
2013-8-27,80,74,68,75,71,68,100,97,79,30.06,30.02,29.97,10,8,4,14,5,22,0.06,,,254
2013-8-28,75,70,66,73,70,66,100,100,94,30.01,29.93,29.87,10,7,2,8,1,,1.27,,,235
2013-8-29,82,73,64,73,68,64,100,89,58,30.08,30.04,29.96,10,8,0,8,1,,0.00,,,78
2013-8-30,82,71,60,72,69,61,100,88,70,30.06,29.99,29.89,10,10,7,12,2,16,0.00,,,240
2013-8-31,82,76,69,73,71,70,100,91,70,29.90,29.87,29.82,10,9,5,10,4,,0.00,,,239